Time;durP1;ratioP1;P1;durP2;ratioP2;P2;SDS_P1;SDS_P2;PMS_P1;PMS_P2;Temp;Humidity;BMP_temperature;BMP_pressure;BME280_temperature;BME280_humidity;BME280_pressure;Samples;Min_cycle;Max_cycle;Signal;HPM_P1;HPM_P2
2022/12/11 00:01:20;;;;;;;28.10;15.80;;;2.50;99.90;;;;;;5028968;28;20846;-87
2022/12/11 00:03:49;;;;;;;24.93;15.00;;;2.60;99.90;;;;;;5015237;28;20475;-87
2022/12/11 00:06:21;;;;;;;23.03;14.83;;;2.60;99.90;;;;;;5015447;28;20457;-87
2022/12/11 00:08:53;;;;;;;24.43;15.13;;;2.60;99.90;;;;;;4977720;28;1089497;-87
2022/12/11 00:11:22;;;;;;;25.73;15.40;;;2.70;99.90;;;;;;5034730;28;20195;-86
2022/12/11 00:13:50;;;;;;;29.23;19.80;;;2.60;99.90;;;;;;5035047;28;20431;-88
2022/12/11 00:16:22;;;;;;;24.33;16.30;;;2.70;99.90;;;;;;5018373;28;20204;-87
2022/12/11 00:18:55;;;;;;;28.23;16.03;;;2.80;99.90;;;;;;5026334;28;20472;-87
2022/12/11 00:21:25;;;;;;;23.33;15.33;;;2.70;99.90;;;;;;5035903;28;20448;-86
2022/12/11 00:24:00;;;;;;;27.83;15.70;;;2.70;99.90;;;;;;5035786;28;20470;-87
2022/12/11 00:26:27;;;;;;;28.27;15.80;;;2.60;99.90;;;;;;5035547;28;20462;-86
2022/12/11 00:28:57;;;;;;;25.00;14.57;;;2.60;99.90;;;;;;5036091;28;20467;-87
2022/12/11 00:31:29;;;;;;;25.57;14.97;;;2.60;99.90;;;;;;5037284;28;20453;-93
2022/12/11 00:34:03;;;;;;;26.00;15.90;;;2.60;99.90;;;;;;5028107;28;20457;-93
2022/12/11 00:36:36;;;;;;;26.47;14.63;;;2.60;99.90;;;;;;5032157;28;20452;-91
2022/12/11 00:39:10;;;;;;;22.83;14.13;;;2.70;99.90;;;;;;5037715;28;20587;-91
2022/12/11 00:41:43;;;;;;;25.33;14.83;;;2.60;99.90;;;;;;5035239;28;20463;-91
2022/12/11 00:44:14;;;;;;;28.00;14.63;;;2.50;99.90;;;;;;5025718;28;20497;-89
2022/12/11 00:46:42;;;;;;;27.00;15.77;;;2.50;99.90;;;;;;5021552;28;20439;-90
2022/12/11 00:49:09;;;;;;;22.20;14.67;;;2.50;99.90;;;;;;5024562;28;20456;-90
2022/12/11 00:51:37;;;;;;;25.67;15.33;;;2.50;99.90;;;;;;5037256;28;20444;-91
2022/12/11 00:54:05;;;;;;;26.17;15.53;;;2.50;99.90;;;;;;5016718;28;20986;-88
2022/12/11 00:56:34;;;;;;;25.40;15.37;;;2.60;99.90;;;;;;5028842;28;20451;-92
2022/12/11 00:59:04;;;;;;;24.00;14.40;;;2.60;99.90;;;;;;5031674;28;20975;-88
2022/12/11 01:01:32;;;;;;;21.60;13.33;;;2.60;99.90;;;;;;5016472;28;20492;-91
2022/12/11 01:04:01;;;;;;;21.53;13.27;;;2.60;99.90;;;;;;5030406;28;20483;-92
2022/12/11 01:06:29;;;;;;;24.07;14.90;;;2.60;99.90;;;;;;5015699;28;20453;-88
2022/12/11 01:11:40;;;;;;;26.57;16.17;;;2.60;99.90;;;;;;5034299;28;20231;-88
2022/12/11 01:14:07;;;;;;;27.23;16.33;;;2.70;99.90;;;;;;5034414;28;20448;-89
2022/12/11 01:16:34;;;;;;;25.73;14.53;;;2.80;99.90;;;;;;5034633;28;20448;-85
2022/12/11 01:19:02;;;;;;;26.70;15.03;;;2.80;99.90;;;;;;5034638;28;20448;-89
2022/12/11 01:21:29;;;;;;;30.17;15.67;;;3.00;99.90;;;;;;5018135;28;20488;-87
2022/12/11 01:23:56;;;;;;;29.17;15.67;;;3.00;99.90;;;;;;5024352;28;20939;-86
2022/12/11 01:26:24;;;;;;;23.50;14.50;;;3.10;99.90;;;;;;5034231;28;20436;-86
2022/12/11 01:28:53;;;;;;;27.33;15.73;;;2.90;99.90;;;;;;5034029;28;20452;-87
2022/12/11 01:31:22;;;;;;;25.47;14.23;;;2.90;99.90;;;;;;5034986;28;20540;-86
2022/12/11 01:33:50;;;;;;;27.70;15.47;;;3.00;99.90;;;;;;5034092;28;20452;-86
2022/12/11 01:36:20;;;;;;;24.73;14.53;;;2.90;99.90;;;;;;5034587;28;20444;-88
2022/12/11 01:38:52;;;;;;;25.40;14.53;;;2.80;99.90;;;;;;5028342;28;20461;-87
2022/12/11 01:41:21;;;;;;;23.70;14.37;;;2.80;99.90;;;;;;5027446;28;20535;-86
2022/12/11 01:44:03;;;;;;;23.27;14.90;;;2.70;99.90;;;;;;5020409;28;20456;-86
2022/12/11 01:46:35;;;;;;;26.83;14.23;;;2.80;99.90;;;;;;5021055;28;20452;-92
2022/12/11 01:49:07;;;;;;;26.67;14.97;;;2.60;99.90;;;;;;5023615;28;20440;-91
2022/12/11 01:51:40;;;;;;;26.27;16.23;;;2.60;99.90;;;;;;5038399;28;20453;-94
2022/12/11 01:54:13;;;;;;;27.10;14.63;;;2.70;99.90;;;;;;5036437;28;20457;-91
2022/12/11 01:56:48;;;;;;;25.13;14.73;;;2.60;99.90;;;;;;5037242;28;20444;-92
2022/12/11 01:59:20;;;;;;;29.37;15.40;;;2.60;99.90;;;;;;5037466;28;20467;-92
2022/12/11 02:01:52;;;;;;;26.13;15.43;;;2.70;99.90;;;;;;5023377;28;20464;-92
2022/12/11 02:04:23;;;;;;;30.85;21.48;;;2.80;99.90;;;;;;5021609;28;20785;-90
2022/12/11 02:06:56;;;;;;;26.07;16.23;;;3.00;99.90;;;;;;5036932;28;20573;-91
2022/12/11 02:09:31;;;;;;;22.13;14.47;;;2.90;99.90;;;;;;5035789;28;20466;-93
2022/12/11 02:12:03;;;;;;;24.83;15.27;;;2.90;99.90;;;;;;5036183;28;20456;-93
2022/12/11 02:14:44;;;;;;;25.17;14.83;;;3.00;99.90;;;;;;5022317;28;20440;-92
2022/12/11 02:17:15;;;;;;;25.93;15.40;;;2.90;99.90;;;;;;5022157;28;20449;-92
2022/12/11 02:20:02;;;;;;;25.43;14.47;;;2.90;99.90;;;;;;5030210;28;20491;-92
2022/12/11 02:22:50;;;;;;;26.53;14.27;;;2.80;99.90;;;;;;5016893;28;20453;-92
2022/12/11 02:25:25;;;;;;;22.60;13.40;;;2.80;99.90;;;;;;5014996;28;20457;-92
2022/12/11 02:27:59;;;;;;;23.50;13.53;;;2.80;99.90;;;;;;5016286;28;20467;-92
2022/12/11 02:30:28;;;;;;;26.35;15.48;;;2.60;99.90;;;;;;5016323;28;20443;-93
2022/12/11 02:32:56;;;;;;;25.73;14.43;;;2.60;99.90;;;;;;5016437;28;20212;-90
2022/12/11 02:35:30;;;;;;;25.53;15.03;;;2.60;99.90;;;;;;5016096;28;20500;-93
2022/12/11 02:38:15;;;;;;;25.57;14.27;;;2.50;99.90;;;;;;5016447;28;20438;-92
2022/12/11 02:40:44;;;;;;;25.60;13.93;;;2.50;99.90;;;;;;5016851;28;20493;-91
2022/12/11 02:43:19;;;;;;;25.27;15.07;;;2.50;99.90;;;;;;5017096;28;20433;-91
2022/12/11 02:45:56;;;;;;;26.73;14.27;;;2.50;99.90;;;;;;5016811;28;20448;-94
2022/12/11 02:48:30;;;;;;;26.27;14.87;;;2.60;99.90;;;;;;5016390;28;20425;-91
2022/12/11 02:50:58;;;;;;;25.83;14.40;;;2.70;99.90;;;;;;5015667;28;20448;-91
2022/12/11 02:53:29;;;;;;;30.73;15.73;;;2.60;99.90;;;;;;5016134;28;20928;-91
2022/12/11 02:56:02;;;;;;;23.90;14.50;;;2.70;99.90;;;;;;5018160;28;20506;-91
2022/12/11 02:58:32;;;;;;;27.13;15.23;;;2.80;99.90;;;;;;5021021;28;20468;-93
2022/12/11 03:01:04;;;;;;;30.23;15.87;;;2.80;99.90;;;;;;5019847;28;20489;-91
2022/12/11 03:03:33;;;;;;;27.67;15.07;;;3.00;99.90;;;;;;5020234;28;20456;-90
2022/12/11 03:06:09;;;;;;;28.23;16.03;;;3.00;99.90;;;;;;5019659;28;20449;-92
2022/12/11 03:08:36;;;;;;;24.70;14.57;;;3.10;99.90;;;;;;5020792;28;20462;-91
2022/12/11 03:11:11;;;;;;;27.67;16.27;;;3.00;99.90;;;;;;5022028;28;20457;-91
2022/12/11 03:13:40;;;;;;;25.20;14.47;;;2.90;99.90;;;;;;5019637;28;20936;-92
2022/12/11 03:16:15;;;;;;;27.80;17.13;;;3.00;99.90;;;;;;5018494;28;20448;-95
2022/12/11 03:18:53;;;;;;;26.27;15.27;;;2.70;99.90;;;;;;5019333;28;20437;-92
2022/12/11 03:21:27;;;;;;;29.60;17.40;;;2.70;99.90;;;;;;5019334;28;20491;-92
2022/12/11 03:24:01;;;;;;;26.60;15.80;;;2.80;99.90;;;;;;5019128;28;20430;-93
2022/12/11 03:26:40;;;;;;;27.67;15.77;;;2.90;99.90;;;;;;5019637;28;20444;-91
2022/12/11 03:29:19;;;;;;;29.83;17.33;;;2.90;99.90;;;;;;5020314;28;20438;-92
2022/12/11 03:31:59;;;;;;;30.73;17.67;;;2.90;99.90;;;;;;5020068;28;20453;-91
2022/12/11 03:34:30;;;;;;;28.47;16.80;;;3.00;99.90;;;;;;5020806;28;20457;-91
2022/12/11 03:37:03;;;;;;;30.53;17.57;;;3.10;99.90;;;;;;5020745;28;20472;-91
2022/12/11 03:39:32;;;;;;;28.03;17.10;;;3.20;99.90;;;;;;5020425;28;20841;-91
2022/12/11 03:42:03;;;;;;;30.97;17.83;;;3.00;99.90;;;;;;5019424;28;20456;-90
2022/12/11 03:44:33;;;;;;;28.90;17.17;;;3.00;99.90;;;;;;5020976;28;20457;-91
2022/12/11 03:47:08;;;;;;;33.80;18.30;;;2.90;99.90;;;;;;5019606;28;20453;-94
2022/12/11 03:49:40;;;;;;;32.93;18.57;;;2.90;99.90;;;;;;5019226;28;20456;-91
2022/12/11 03:52:13;;;;;;;33.07;17.67;;;3.00;99.90;;;;;;5019862;28;20441;-92
2022/12/11 03:54:45;;;;;;;35.38;21.17;;;3.10;99.90;;;;;;5020706;28;20440;-92
2022/12/11 03:57:18;;;;;;;29.73;18.97;;;3.20;99.90;;;;;;5019597;28;20204;-91
2022/12/11 03:59:46;;;;;;;32.17;19.37;;;3.20;99.90;;;;;;5019845;28;20461;-91
2022/12/11 04:02:20;;;;;;;30.70;18.90;;;3.20;99.90;;;;;;5020044;28;20444;-92
2022/12/11 04:04:50;;;;;;;31.37;17.30;;;3.10;99.90;;;;;;5018840;28;20444;-93
2022/12/11 04:07:17;;;;;;;27.80;17.53;;;3.10;99.90;;;;;;5016797;28;20453;-87
2022/12/11 04:09:49;;;;;;;30.03;17.33;;;3.10;99.90;;;;;;5018094;28;20469;-91
2022/12/11 04:12:22;;;;;;;29.63;17.33;;;3.00;99.90;;;;;;5018527;28;20434;-92
2022/12/11 04:15:04;;;;;;;33.00;18.67;;;3.00;99.90;;;;;;5018791;28;20425;-90
2022/12/11 04:26:05;;;;;;;32.40;18.37;;;2.90;99.90;;;;;;4999041;28;20430;-86
2022/12/11 04:28:32;;;;;;;30.77;18.23;;;2.90;99.90;;;;;;5035820;28;20433;-88
2022/12/11 04:30:59;;;;;;;32.03;17.83;;;2.90;99.90;;;;;;5035845;28;20458;-88
2022/12/11 04:33:31;;;;;;;32.00;17.60;;;3.00;99.90;;;;;;5037779;28;20944;-91
2022/12/11 04:36:06;;;;;;;30.10;17.00;;;3.00;99.90;;;;;;5039923;28;20452;-91
2022/12/11 04:38:33;;;;;;;33.67;18.13;;;3.10;99.90;;;;;;5039296;28;20446;-91
2022/12/11 04:41:07;;;;;;;27.53;17.53;;;3.10;99.90;;;;;;5039212;28;20492;-93
2022/12/11 04:43:34;;;;;;;28.83;17.13;;;3.20;99.90;;;;;;5039757;28;20432;-92
2022/12/11 04:46:09;;;;;;;30.77;17.93;;;3.20;99.90;;;;;;5040203;28;20790;-91
2022/12/11 04:48:39;;;;;;;32.40;17.40;;;3.20;99.90;;;;;;5038415;28;20440;-91
2022/12/11 04:51:12;;;;;;;33.30;19.27;;;3.10;99.90;;;;;;5037697;28;20452;-92
2022/12/11 04:53:42;;;;;;;29.60;17.53;;;3.00;99.90;;;;;;5037454;28;20448;-91
2022/12/11 04:56:13;;;;;;;29.93;18.17;;;3.10;99.90;;;;;;5037930;28;20449;-93
2022/12/11 04:58:44;;;;;;;28.53;17.17;;;3.10;99.90;;;;;;5039588;28;20440;-91
2022/12/11 05:01:11;;;;;;;34.23;18.80;;;2.90;99.90;;;;;;5030609;28;20490;-88
2022/12/11 05:03:46;;;;;;;30.80;18.17;;;3.00;99.90;;;;;;5035132;28;20448;-88
2022/12/11 05:06:15;;;;;;;34.20;17.67;;;3.00;99.90;;;;;;5035337;28;20458;-84
2022/12/11 05:08:44;;;;;;;31.63;18.73;;;3.00;99.90;;;;;;5034916;28;20460;-86
2022/12/11 05:11:14;;;;;;;29.53;19.43;;;3.10;99.90;;;;;;5035254;28;20476;-89
2022/12/11 05:13:44;;;;;;;35.27;19.20;;;3.00;99.90;;;;;;5021454;28;20456;-85
2022/12/11 05:16:14;;;;;;;34.33;19.40;;;3.10;99.90;;;;;;5021639;28;20447;-88
2022/12/11 05:18:48;;;;;;;36.73;19.20;;;2.90;99.90;;;;;;5035047;28;20451;-91
2022/12/11 05:21:16;;;;;;;36.83;24.05;;;2.90;99.90;;;;;;5016161;28;20448;-88
2022/12/11 05:23:44;;;;;;;40.20;23.03;;;2.90;99.90;;;;;;5028265;28;20214;-88
2022/12/11 05:26:14;;;;;;;41.37;22.03;;;2.90;99.90;;;;;;5022206;28;20444;-90
2022/12/11 05:28:42;;;;;;;33.77;20.57;;;2.90;99.90;;;;;;5026765;28;20437;-90
2022/12/11 05:31:13;;;;;;;36.90;22.00;;;2.80;99.90;;;;;;5032922;28;20442;-87
2022/12/11 05:33:46;;;;;;;37.40;20.93;;;2.80;99.90;;;;;;5034883;28;20459;-87
2022/12/11 05:36:21;;;;;;;36.40;21.27;;;2.90;99.90;;;;;;5031479;28;20458;-85
2022/12/11 05:38:48;;;;;;;35.77;20.53;;;2.90;99.90;;;;;;5015124;28;20487;-86
2022/12/11 05:41:18;;;;;;;41.27;21.80;;;2.90;99.90;;;;;;5027683;28;20542;-84
2022/12/11 05:43:49;;;;;;;39.27;21.27;;;2.90;99.90;;;;;;5022828;28;20455;-86
2022/12/11 05:46:24;;;;;;;42.00;22.67;;;3.00;99.90;;;;;;5020070;28;20429;-89
2022/12/11 05:48:55;;;;;;;41.83;23.40;;;3.20;99.90;;;;;;5028613;28;20456;-91
2022/12/11 05:51:25;;;;;;;42.73;22.60;;;3.20;99.90;;;;;;5031991;28;20826;-90
2022/12/11 05:53:55;;;;;;;39.03;21.93;;;3.20;99.90;;;;;;5024349;28;20449;-92
2022/12/11 05:56:26;;;;;;;36.13;21.80;;;3.10;99.90;;;;;;5036063;28;20931;-87
2022/12/11 05:58:55;;;;;;;39.63;21.97;;;3.00;99.90;;;;;;5036897;28;20455;-91
2022/12/11 06:01:26;;;;;;;44.00;23.80;;;2.90;99.90;;;;;;5036125;28;21025;-87
2022/12/11 06:04:00;;;;;;;43.10;23.03;;;2.80;99.90;;;;;;5035162;28;20850;-86
2022/12/11 06:06:29;;;;;;;39.87;22.80;;;2.70;99.90;;;;;;5034925;28;21038;-92
2022/12/11 06:08:57;;;;;;;40.03;21.73;;;2.60;99.90;;;;;;5034003;28;20452;-86
2022/12/11 06:11:27;;;;;;;39.63;23.37;;;2.60;99.90;;;;;;5033858;28;20441;-86
2022/12/11 06:13:54;;;;;;;41.70;24.03;;;2.70;99.90;;;;;;5034064;28;20447;-86
2022/12/11 06:16:22;;;;;;;43.33;22.43;;;2.70;99.90;;;;;;5024325;28;20801;-93
2022/12/11 06:18:52;;;;;;;48.83;28.55;;;2.80;99.90;;;;;;5028797;28;20465;-93
2022/12/11 06:21:24;;;;;;;43.47;23.83;;;2.80;99.90;;;;;;5015751;28;20242;-90
2022/12/11 06:23:52;;;;;;;40.83;22.90;;;3.00;99.90;;;;;;5015227;28;20453;-89
2022/12/11 06:26:22;;;;;;;44.43;23.93;;;3.10;99.90;;;;;;5014173;28;20791;-90
2022/12/11 06:28:49;;;;;;;45.63;22.07;;;3.00;99.90;;;;;;5014763;28;20445;-87
2022/12/11 06:31:22;;;;;;;43.23;22.87;;;2.90;99.90;;;;;;5016417;28;20453;-91
2022/12/11 06:33:55;;;;;;;45.03;22.10;;;2.90;99.90;;;;;;5018853;28;20433;-91
2022/12/11 06:36:25;;;;;;;40.57;21.70;;;2.80;99.90;;;;;;5018979;28;20433;-88
2022/12/11 06:38:55;;;;;;;43.03;22.93;;;2.90;99.90;;;;;;5019444;28;20465;-90
2022/12/11 06:41:24;;;;;;;45.70;24.30;;;2.90;99.90;;;;;;5019120;28;20473;-87
2022/12/11 06:43:52;;;;;;;43.40;22.03;;;2.80;99.90;;;;;;5017900;28;20453;-92
2022/12/11 06:46:21;;;;;;;43.87;21.53;;;2.60;99.90;;;;;;5020480;28;20461;-88
2022/12/11 06:48:48;;;;;;;43.33;22.57;;;2.60;99.90;;;;;;5019180;28;20452;-89
2022/12/11 06:51:23;;;;;;;38.27;21.70;;;2.60;99.90;;;;;;5019433;28;20453;-88
2022/12/11 06:53:54;;;;;;;45.13;22.20;;;2.70;99.90;;;;;;5019295;28;20463;-89
2022/12/11 06:56:24;;;;;;;41.40;22.23;;;2.90;99.90;;;;;;5018721;28;20457;-92
2022/12/11 06:58:55;;;;;;;42.40;23.10;;;2.90;99.90;;;;;;5018908;28;20433;-92
2022/12/11 07:01:25;;;;;;;41.13;23.30;;;2.90;99.90;;;;;;5018740;28;20576;-88
2022/12/11 07:03:59;;;;;;;43.17;22.70;;;2.90;99.90;;;;;;5019222;28;20437;-85
2022/12/11 07:06:31;;;;;;;41.73;22.10;;;2.90;99.90;;;;;;5018179;28;20453;-89
2022/12/11 07:09:03;;;;;;;42.67;21.30;;;2.80;99.90;;;;;;5018905;28;20460;-89
2022/12/11 07:11:30;;;;;;;43.87;22.10;;;2.70;99.90;;;;;;5019551;28;20438;-92
2022/12/11 07:13:58;;;;;;;39.63;21.93;;;2.70;99.90;;;;;;5018038;28;20441;-93
2022/12/11 07:16:27;;;;;;;45.70;22.63;;;2.70;99.90;;;;;;5019015;28;20448;-89
2022/12/11 07:18:56;;;;;;;42.20;22.60;;;2.70;99.90;;;;;;5018686;28;20445;-90
2022/12/11 07:21:23;;;;;;;37.87;20.07;;;2.70;99.90;;;;;;5017697;28;20488;-91
2022/12/11 07:23:58;;;;;;;43.17;21.97;;;2.60;99.90;;;;;;5018159;28;20553;-91
2022/12/11 07:26:31;;;;;;;41.07;20.87;;;2.60;99.90;;;;;;5018317;28;20471;-91
2022/12/11 07:29:01;;;;;;;38.67;20.83;;;2.50;99.90;;;;;;5018140;28;20430;-90
2022/12/11 07:31:30;;;;;;;40.37;21.37;;;2.40;99.90;;;;;;5019140;28;20453;-90
2022/12/11 07:34:01;;;;;;;38.13;21.30;;;2.50;99.90;;;;;;5018060;28;20454;-88
2022/12/11 07:36:34;;;;;;;38.43;20.63;;;2.60;99.90;;;;;;5018815;28;20450;-89
2022/12/11 07:39:10;;;;;;;36.13;18.77;;;2.60;99.90;;;;;;5018754;28;20532;-85
2022/12/11 07:41:45;;;;;;;34.97;19.20;;;2.50;99.90;;;;;;5017244;28;20489;-89
2022/12/11 07:44:15;;;;;;;32.60;18.50;;;2.40;99.90;;;;;;5018185;28;20518;-88
2022/12/11 07:46:42;;;;;;;36.15;21.05;;;2.40;99.90;;;;;;5016486;28;20432;-88
2022/12/11 07:49:17;;;;;;;33.33;19.03;;;2.40;99.90;;;;;;5016680;28;20651;-84
2022/12/11 07:51:50;;;;;;;33.27;19.10;;;2.20;99.90;;;;;;5016535;28;20559;-89
2022/12/11 07:54:20;;;;;;;34.63;18.67;;;2.10;99.90;;;;;;5016404;28;20434;-84
2022/12/11 07:56:48;;;;;;;37.93;18.30;;;2.10;99.90;;;;;;5016142;28;20479;-86
2022/12/11 07:59:28;;;;;;;38.90;19.43;;;2.10;99.90;;;;;;5016513;28;20450;-87
2022/12/11 08:01:55;;;;;;;32.87;18.40;;;2.10;99.90;;;;;;5016404;28;20488;-89
2022/12/11 08:04:23;;;;;;;42.10;19.37;;;2.30;99.90;;;;;;5016855;28;20495;-85
2022/12/11 08:06:59;;;;;;;36.00;19.10;;;2.40;99.90;;;;;;5016337;28;20453;-86
2022/12/11 08:09:30;;;;;;;37.13;19.20;;;2.40;99.90;;;;;;5016072;28;20574;-87
2022/12/11 08:12:00;;;;;;;34.20;20.23;;;2.40;99.90;;;;;;5017187;28;20438;-88
2022/12/11 08:14:30;;;;;;;35.63;19.67;;;2.50;99.90;;;;;;5023932;28;20452;-87
2022/12/11 08:16:59;;;;;;;37.87;19.97;;;2.50;99.90;;;;;;5025499;28;20427;-87
2022/12/11 08:19:28;;;;;;;36.70;19.57;;;2.70;99.90;;;;;;5026162;28;20552;-87
2022/12/11 08:21:55;;;;;;;35.63;18.80;;;2.60;99.90;;;;;;5025221;28;20479;-87
2022/12/11 08:24:26;;;;;;;38.73;19.90;;;2.50;99.90;;;;;;5027640;28;20933;-87
2022/12/11 08:26:54;;;;;;;31.87;18.63;;;2.60;99.90;;;;;;5027864;28;20443;-87
2022/12/11 08:29:23;;;;;;;34.33;18.43;;;2.70;99.90;;;;;;5035733;28;20543;-87
2022/12/11 08:31:53;;;;;;;37.03;19.47;;;2.80;99.90;;;;;;5036923;28;20456;-88
2022/12/11 08:34:23;;;;;;;39.90;18.50;;;2.70;99.90;;;;;;5037681;28;20448;-87
2022/12/11 08:36:49;;;;;;;34.73;18.57;;;2.60;99.90;;;;;;5036180;28;20471;-89
2022/12/11 08:39:16;;;;;;;37.57;18.23;;;2.60;99.90;;;;;;5041389;28;20464;-93
2022/12/11 08:41:46;;;;;;;40.03;19.60;;;2.60;99.90;;;;;;5035289;28;20481;-93
2022/12/11 08:44:23;;;;;;;38.37;19.20;;;2.60;99.90;;;;;;5041778;28;20432;-91
2022/12/11 08:46:53;;;;;;;38.83;19.27;;;2.80;99.90;;;;;;5036085;28;20494;-86
2022/12/11 08:49:20;;;;;;;36.27;19.17;;;2.80;99.90;;;;;;5035690;28;20433;-90
2022/12/11 08:51:48;;;;;;;36.33;19.67;;;3.00;99.90;;;;;;5036444;28;20452;-89
2022/12/11 08:54:18;;;;;;;36.57;18.77;;;2.90;99.90;;;;;;5035614;28;20792;-89
2022/12/11 08:56:45;;;;;;;32.57;18.43;;;2.90;99.90;;;;;;5035476;28;20461;-90
2022/12/11 08:59:18;;;;;;;33.23;18.13;;;2.90;99.90;;;;;;5035266;28;20458;-91
2022/12/11 09:01:46;;;;;;;35.90;18.07;;;2.90;99.90;;;;;;5035700;28;20487;-91
2022/12/11 09:04:15;;;;;;;33.67;18.40;;;2.80;99.90;;;;;;5035947;28;20437;-91
2022/12/11 09:06:44;;;;;;;33.27;17.10;;;2.90;99.90;;;;;;5035917;28;20432;-90
2022/12/11 09:09:12;;;;;;;32.93;18.00;;;2.90;99.90;;;;;;5040941;28;20452;-90
2022/12/11 09:11:47;;;;;;;33.40;17.87;;;2.90;99.90;;;;;;5037494;28;20464;-90
2022/12/11 09:14:20;;;;;;;46.43;20.83;;;2.70;99.90;;;;;;5035682;28;20440;-90
2022/12/11 09:16:51;;;;;;;37.53;18.93;;;2.80;99.90;;;;;;5035408;28;20947;-90
2022/12/11 09:19:24;;;;;;;32.27;17.40;;;2.90;99.90;;;;;;5035095;28;20452;-89
2022/12/11 09:21:54;;;;;;;37.03;18.53;;;3.00;99.90;;;;;;5035405;28;20487;-90
2022/12/11 09:24:21;;;;;;;38.13;18.87;;;2.70;99.90;;;;;;5036141;28;20456;-80
2022/12/11 09:26:49;;;;;;;34.17;18.50;;;2.80;99.90;;;;;;5035798;28;20809;-81
2022/12/11 09:29:23;;;;;;;36.87;19.00;;;2.70;99.90;;;;;;5039002;28;20429;-87
2022/12/11 09:31:57;;;;;;;33.90;18.00;;;2.80;99.90;;;;;;5044019;28;20518;-86
2022/12/11 09:34:25;;;;;;;34.70;18.07;;;2.90;99.90;;;;;;5045692;28;20454;-83
2022/12/11 09:36:52;;;;;;;42.67;22.37;;;3.00;99.90;;;;;;5034292;28;20782;-78
2022/12/11 09:39:19;;;;;;;36.47;18.03;;;3.00;99.90;;;;;;5033549;28;20815;-82
2022/12/11 09:41:52;;;;;;;38.33;18.77;;;2.90;99.90;;;;;;5033420;28;20492;-75
2022/12/11 09:44:31;;;;;;;37.10;18.03;;;2.90;99.90;;;;;;5033216;28;20448;-76
2022/12/11 09:47:00;;;;;;;33.50;17.13;;;2.90;99.90;;;;;;5033142;28;20432;-75
2022/12/11 09:49:33;;;;;;;37.93;18.63;;;2.90;99.90;;;;;;5033554;28;20808;-80
2022/12/11 09:52:10;;;;;;;33.97;18.37;;;2.90;99.90;;;;;;5029897;28;20457;-84
2022/12/11 09:54:45;;;;;;;33.83;17.90;;;2.90;99.90;;;;;;5019056;28;20429;-79
2022/12/11 09:57:24;;;;;;;34.07;17.87;;;2.90;99.90;;;;;;5023932;28;20926;-83
2022/12/11 10:00:15;;;;;;;34.40;17.10;;;2.80;99.90;;;;;;5021523;28;20438;-78
2022/12/11 10:03:19;;;;;;;33.57;16.90;;;2.80;99.90;;;;;;5020417;28;20540;-78
2022/12/11 10:05:52;;;;;;;32.27;16.67;;;2.60;99.90;;;;;;5007409;28;20962;-83
2022/12/11 10:08:26;;;;;;;40.13;18.53;;;2.70;99.90;;;;;;5032401;28;20472;-77
2022/12/11 10:11:02;;;;;;;34.00;18.17;;;2.60;99.90;;;;;;5033456;28;20459;-74
2022/12/11 10:13:40;;;;;;;33.40;15.67;;;2.60;99.90;;;;;;5036356;28;20966;-76
2022/12/11 10:16:17;;;;;;;30.73;17.30;;;2.50;99.90;;;;;;5036428;28;20439;-76
2022/12/11 10:18:46;;;;;;;30.00;16.90;;;2.60;99.90;;;;;;5036919;28;20827;-76
2022/12/11 10:21:14;;;;;;;38.73;19.10;;;2.50;99.90;;;;;;5036595;28;20476;-79
2022/12/11 10:23:46;;;;;;;33.50;17.23;;;2.60;99.90;;;;;;5036672;28;20483;-79
2022/12/11 10:26:17;;;;;;;30.70;16.90;;;2.60;99.90;;;;;;5036136;28;20936;-74
2022/12/11 10:28:44;;;;;;;32.27;17.13;;;2.60;99.90;;;;;;5036159;28;20448;-76
2022/12/11 10:31:17;;;;;;;35.30;21.08;;;2.50;99.90;;;;;;5036404;28;20435;-75
2022/12/11 10:33:55;;;;;;;36.50;18.87;;;2.50;99.90;;;;;;5036663;28;20260;-78
2022/12/11 10:36:28;;;;;;;31.17;16.50;;;2.70;99.90;;;;;;5035208;28;20452;-84
2022/12/11 10:38:55;;;;;;;29.70;16.83;;;2.80;99.90;;;;;;5035890;28;20483;-77
2022/12/11 10:41:24;;;;;;;31.17;16.63;;;2.90;99.90;;;;;;5036340;28;20459;-77
2022/12/11 10:43:52;;;;;;;32.93;16.83;;;2.80;99.90;;;;;;5036098;28;20500;-75
2022/12/11 10:46:22;;;;;;;30.40;16.27;;;2.80;99.90;;;;;;5036771;28;20482;-75
2022/12/11 10:48:53;;;;;;;28.03;15.87;;;2.80;99.90;;;;;;5035548;28;20460;-81
2022/12/11 10:51:21;;;;;;;29.03;15.20;;;2.90;99.90;;;;;;5032981;28;20441;-75
2022/12/11 10:53:52;;;;;;;24.80;15.17;;;2.90;99.90;;;;;;5036272;28;20459;-74
2022/12/11 10:56:25;;;;;;;29.53;16.17;;;3.10;99.90;;;;;;5036248;28;20440;-75
2022/12/11 10:58:53;;;;;;;33.33;15.93;;;3.00;99.90;;;;;;5036455;28;20440;-75
2022/12/11 11:01:23;;;;;;;29.70;15.63;;;3.00;99.90;;;;;;5035916;28;20794;-74
2022/12/11 11:03:58;;;;;;;32.87;16.03;;;3.10;99.90;;;;;;5036442;28;20491;-83
2022/12/11 11:06:26;;;;;;;28.60;15.13;;;3.20;99.90;;;;;;5033862;28;20515;-85
2022/12/11 11:08:54;;;;;;;26.57;13.80;;;3.20;99.90;;;;;;5026164;28;20459;-75
2022/12/11 11:11:26;;;;;;;29.13;15.87;;;3.40;99.90;;;;;;5036980;28;20553;-81
2022/12/11 11:14:06;;;;;;;28.10;15.63;;;3.50;99.90;;;;;;5036529;28;20479;-84
2022/12/11 11:16:36;;;;;;;26.50;14.67;;;3.60;99.90;;;;;;5035527;28;20444;-76
2022/12/11 11:19:04;;;;;;;30.87;15.70;;;3.50;99.90;;;;;;5035939;28;20448;-81
2022/12/11 11:21:34;;;;;;;29.07;14.97;;;3.50;99.90;;;;;;5036078;28;20444;-84
2022/12/11 11:24:00;;;;;;;26.87;14.23;;;3.60;99.90;;;;;;5035881;28;20488;-81
2022/12/11 11:26:31;;;;;;;32.40;15.37;;;3.70;99.90;;;;;;5035883;28;20440;-74
2022/12/11 11:28:58;;;;;;;32.30;15.53;;;3.50;99.90;;;;;;5035170;28;20456;-82
2022/12/11 11:31:32;;;;;;;29.23;14.17;;;3.40;99.90;;;;;;5035377;28;20459;-75
2022/12/11 11:34:02;;;;;;;27.83;15.98;;;3.50;99.90;;;;;;5035510;28;20952;-75
2022/12/11 11:36:32;;;;;;;24.40;14.03;;;3.50;99.90;;;;;;5035635;28;20202;-80
2022/12/11 11:39:13;;;;;;;21.33;12.60;;;3.40;99.90;;;;;;5024360;28;20457;-88
2022/12/11 11:41:48;;;;;;;19.70;11.67;;;3.20;99.90;;;;;;5022137;28;20452;-83
2022/12/11 11:44:19;;;;;;;18.73;11.30;;;3.10;99.90;;;;;;5036596;28;20475;-88
2022/12/11 11:46:53;;;;;;;24.43;12.37;;;3.00;99.90;;;;;;5036245;28;20441;-85
2022/12/11 11:49:25;;;;;;;23.87;13.87;;;3.10;99.90;;;;;;5036001;28;20451;-89
2022/12/11 11:51:57;;;;;;;26.47;13.50;;;2.90;99.90;;;;;;5036126;28;20440;-88
2022/12/11 11:54:33;;;;;;;26.37;13.30;;;3.00;99.90;;;;;;5036288;28;20448;-89
2022/12/11 11:57:03;;;;;;;29.33;15.52;;;2.80;99.90;;;;;;5035983;28;20465;-87
2022/12/11 11:59:34;;;;;;;30.47;16.23;;;2.70;99.90;;;;;;5024596;28;20210;-92
2022/12/11 12:02:01;;;;;;;30.07;14.17;;;2.80;99.90;;;;;;5035774;28;20442;-87
2022/12/11 12:04:32;;;;;;;28.60;15.03;;;2.90;99.90;;;;;;5035852;28;20445;-76
2022/12/11 12:07:21;;;;;;;31.87;18.13;;;3.00;99.90;;;;;;5035069;28;20494;-79
2022/12/11 12:09:57;;;;;;;32.43;16.67;;;3.00;99.90;;;;;;5034999;28;20962;-88
2022/12/11 12:12:34;;;;;;;27.73;16.70;;;3.10;99.90;;;;;;5034815;28;20484;-78
2022/12/11 12:15:25;;;;;;;33.13;16.37;;;2.90;99.90;;;;;;5034966;28;20822;-78
2022/12/11 12:17:54;;;;;;;31.97;15.77;;;2.80;99.90;;;;;;5034549;28;20449;-79
2022/12/11 12:20:35;;;;;;;32.20;16.70;;;2.70;99.90;;;;;;5035298;28;20452;-87
2022/12/11 12:23:21;;;;;;;33.27;16.90;;;2.70;99.90;;;;;;5034618;28;20998;-78
2022/12/11 12:25:54;;;;;;;31.43;16.37;;;2.80;99.90;;;;;;5034803;28;20937;-85
2022/12/11 12:28:27;;;;;;;32.00;16.60;;;2.90;99.90;;;;;;5027325;28;20444;-76
2022/12/11 12:31:12;;;;;;;34.40;17.57;;;2.80;99.90;;;;;;5035599;28;20444;-84
2022/12/11 12:33:51;;;;;;;30.43;16.53;;;2.80;99.90;;;;;;5033474;28;20449;-89
2022/12/11 12:36:27;;;;;;;34.70;16.90;;;2.70;99.90;;;;;;5029423;28;20788;-79
2022/12/11 12:39:01;;;;;;;31.57;16.83;;;2.70;99.90;;;;;;5034742;28;20905;-88
2022/12/11 12:41:37;;;;;;;32.47;16.40;;;2.70;99.90;;;;;;5034761;28;20452;-89
2022/12/11 12:44:15;;;;;;;33.70;16.93;;;2.60;99.90;;;;;;5034893;28;20828;-88
2022/12/11 12:46:59;;;;;;;41.63;25.05;;;2.50;99.90;;;;;;5033884;28;20430;-83
2022/12/11 12:49:34;;;;;;;34.53;18.13;;;2.80;99.90;;;;;;5025829;28;20564;-87
2022/12/11 12:52:02;;;;;;;33.00;17.63;;;2.90;99.90;;;;;;5031413;28;20436;-87
2022/12/11 12:54:33;;;;;;;29.77;17.90;;;3.10;99.90;;;;;;5035305;28;20448;-86
2022/12/11 12:57:04;;;;;;;36.77;17.00;;;2.90;99.90;;;;;;5034841;28;20448;-89
2022/12/11 12:59:36;;;;;;;33.00;17.97;;;2.70;99.90;;;;;;5035050;28;20450;-87
2022/12/11 13:02:05;;;;;;;33.80;18.50;;;2.80;99.90;;;;;;5034660;28;20444;-88
2022/12/11 13:04:38;;;;;;;31.17;16.00;;;2.90;99.90;;;;;;5027349;28;20580;-79
2022/12/11 13:07:22;;;;;;;30.53;16.87;;;2.90;99.90;;;;;;5029378;28;20443;-87
2022/12/11 13:10:00;;;;;;;32.97;19.10;;;2.90;99.90;;;;;;5025715;28;20444;-85